createdAt,value
2018-07-14T00:01:15.742Z,79.30
2018-07-14T00:06:12.661Z,79.40
2018-07-14T00:08:41.754Z,79.00
2018-07-14T00:11:10.129Z,79.20
2018-07-14T00:13:38.885Z,79.30
2018-07-14T00:16:07.638Z,79.70
2018-07-14T00:18:36.280Z,78.90
2018-07-14T00:21:04.738Z,79.10
2018-07-14T00:23:33.160Z,79.60
2018-07-14T00:26:02.425Z,79.50
2018-07-14T00:28:32.507Z,79.60
2018-07-14T00:31:00.918Z,79.60
2018-07-14T00:33:30.010Z,79.70
2018-07-14T00:35:58.489Z,79.50
2018-07-14T00:38:27.314Z,79.30
2018-07-14T00:43:23.810Z,78.70
2018-07-14T00:45:52.268Z,79.50
2018-07-14T00:48:20.677Z,80.30
2018-07-14T00:50:49.109Z,80.20
2018-07-14T00:53:18.125Z,80.20
2018-07-14T00:55:46.591Z,80.30
2018-07-14T01:00:43.106Z,80.00
2018-07-14T01:03:11.552Z,80.30
2018-07-14T01:05:39.954Z,80.30
2018-07-14T01:08:08.885Z,80.30
2018-07-14T01:10:37.536Z,80.30
2018-07-14T01:13:06.011Z,81.00
2018-07-14T01:15:34.411Z,80.70
2018-07-14T01:18:02.806Z,80.80
2018-07-14T01:20:31.565Z,81.20
2018-07-14T01:23:00.351Z,81.50
2018-07-14T01:25:28.762Z,81.80
2018-07-14T01:27:57.136Z,82.10
2018-07-14T01:30:25.593Z,81.20
2018-07-14T01:32:53.980Z,81.10
2018-07-14T01:35:22.369Z,80.40
2018-07-14T01:37:50.730Z,80.80
2018-07-14T01:40:19.094Z,80.40
2018-07-14T01:42:47.488Z,80.70
2018-07-14T01:45:15.900Z,80.60
2018-07-14T01:47:44.274Z,80.50
2018-07-14T01:50:12.652Z,79.80
2018-07-14T01:52:41.027Z,79.80
2018-07-14T01:55:09.427Z,79.60
2018-07-14T02:02:34.064Z,80.50
2018-07-14T02:05:02.510Z,81.00
2018-07-14T02:07:31.094Z,81.00
2018-07-14T02:09:59.828Z,82.00
2018-07-14T02:14:56.667Z,82.30
2018-07-14T02:17:25.401Z,81.80
2018-07-14T02:19:53.821Z,81.50
2018-07-14T02:22:22.230Z,81.50
2018-07-14T02:24:50.622Z,81.80
2018-07-14T02:27:19.001Z,81.20
2018-07-14T02:29:47.590Z,81.20
2018-07-14T02:32:16.638Z,80.30
2018-07-14T02:34:45.433Z,80.80
2018-07-14T02:37:14.279Z,81.20
2018-07-14T02:39:42.961Z,81.40
2018-07-14T02:42:11.809Z,80.90
2018-07-14T02:44:40.670Z,80.60
2018-07-14T02:47:09.822Z,81.00
2018-07-14T02:49:38.940Z,81.20
2018-07-14T02:52:07.452Z,81.10
2018-07-14T02:54:36.214Z,81.10
2018-07-14T02:57:05.076Z,81.00
2018-07-14T02:59:33.857Z,81.70
2018-07-14T03:04:30.665Z,80.80
2018-07-14T03:06:59.803Z,80.70
2018-07-14T03:09:28.682Z,80.80
2018-07-14T03:11:57.672Z,81.10
2018-07-14T03:14:26.799Z,81.70
2018-07-14T03:16:56.211Z,82.40
2018-07-14T03:19:25.186Z,82.00
2018-07-14T03:21:54.348Z,82.20
2018-07-14T03:24:23.418Z,82.20
2018-07-14T03:26:51.848Z,82.80
2018-07-14T03:29:20.335Z,82.60
2018-07-14T03:31:48.673Z,82.60
2018-07-14T03:34:17.085Z,82.20
2018-07-14T03:36:45.482Z,83.10
2018-07-14T03:39:13.861Z,83.90
2018-07-14T03:41:42.216Z,83.70
2018-07-14T03:44:10.632Z,84.00
2018-07-14T03:46:38.987Z,82.80
2018-07-14T03:49:07.365Z,83.10
2018-07-14T03:51:35.705Z,83.10
2018-07-14T03:54:04.416Z,82.90
2018-07-14T03:56:32.814Z,83.00
2018-07-14T03:59:01.613Z,83.00
2018-07-14T04:01:29.994Z,82.60
2018-07-14T04:03:58.328Z,82.70
2018-07-14T04:06:26.730Z,82.80
2018-07-14T04:08:55.104Z,83.40
2018-07-14T04:11:23.397Z,83.30
2018-07-14T04:13:51.748Z,83.80
2018-07-14T04:16:20.179Z,84.70
2018-07-14T04:18:48.539Z,84.60
2018-07-14T04:23:45.072Z,85.90
2018-07-14T04:26:13.757Z,86.70
2018-07-14T04:28:42.467Z,86.70
2018-07-14T04:31:10.789Z,86.70
2018-07-14T04:33:39.180Z,86.70
2018-07-14T04:36:07.598Z,86.90
2018-07-14T04:38:35.964Z,86.20
2018-07-14T04:41:04.338Z,85.60
2018-07-14T04:43:33.051Z,85.80
2018-07-14T04:46:01.385Z,85.90
2018-07-14T04:48:29.762Z,85.50
2018-07-14T04:50:58.128Z,85.70
2018-07-14T04:53:27.173Z,85.00
2018-07-14T04:55:55.509Z,84.70
2018-07-14T04:58:24.508Z,84.80
2018-07-14T05:00:52.914Z,84.60
2018-07-14T05:03:21.253Z,84.90
2018-07-14T05:05:49.621Z,85.10
2018-07-14T05:08:18.297Z,84.80
2018-07-14T05:10:46.709Z,84.70
2018-07-14T05:13:15.345Z,84.40
2018-07-14T05:15:43.704Z,84.70
2018-07-14T05:18:12.149Z,85.10
2018-07-14T05:20:40.530Z,85.10
2018-07-14T05:23:08.901Z,84.50
2018-07-14T05:25:37.281Z,84.40
2018-07-14T05:28:05.980Z,84.80
2018-07-14T05:30:34.352Z,85.40
2018-07-14T05:35:38.917Z,85.00
2018-07-14T05:38:07.294Z,84.50
2018-07-14T05:40:35.668Z,84.80
2018-07-14T05:43:04.110Z,83.90
2018-07-14T05:45:32.454Z,83.60
2018-07-14T05:48:00.861Z,84.00
2018-07-14T05:50:29.225Z,82.80
2018-07-14T05:52:57.885Z,82.50
2018-07-14T05:55:26.182Z,82.80
2018-07-14T05:57:54.620Z,82.60
2018-07-14T06:00:23.078Z,81.80
2018-07-14T06:02:51.498Z,81.50
2018-07-14T06:05:20.213Z,81.20
2018-07-14T06:07:48.953Z,80.70
2018-07-14T06:10:17.294Z,80.60
2018-07-14T06:12:45.665Z,80.30
2018-07-14T06:15:14.046Z,80.30
2018-07-14T06:17:42.472Z,79.70
2018-07-14T06:20:11.262Z,79.30
2018-07-14T06:22:39.761Z,79.50
2018-07-14T06:25:08.355Z,79.40
2018-07-14T06:27:36.763Z,79.80
2018-07-14T06:30:06.932Z,79.30
2018-07-14T06:32:35.387Z,78.20
2018-07-14T06:35:03.845Z,78.10
2018-07-14T06:37:32.224Z,78.00
2018-07-14T06:40:00.880Z,77.30
2018-07-14T06:42:29.244Z,77.60
2018-07-14T06:44:57.609Z,76.80
2018-07-14T06:47:26.361Z,76.50
2018-07-14T06:49:54.811Z,77.70
2018-07-14T06:52:23.301Z,77.60
2018-07-14T06:54:51.719Z,76.50
2018-07-14T06:57:20.164Z,76.00
2018-07-14T06:59:48.748Z,75.70
2018-07-14T07:02:17.172Z,75.40
2018-07-14T07:04:45.635Z,74.50
2018-07-14T07:07:14.390Z,74.30
2018-07-14T07:09:42.985Z,73.60
2018-07-14T07:12:11.435Z,72.50
2018-07-14T07:14:39.801Z,71.70
2018-07-14T07:17:08.248Z,69.90
2018-07-14T07:19:36.613Z,69.70
2018-07-14T07:22:05.050Z,70.50
2018-07-14T07:24:33.409Z,69.60
2018-07-14T07:27:01.743Z,69.60
2018-07-14T07:29:30.176Z,68.30
2018-07-14T07:31:58.775Z,68.50
2018-07-14T07:34:27.104Z,67.80
2018-07-14T07:36:55.465Z,68.00
2018-07-14T07:39:23.876Z,68.20
2018-07-14T07:41:52.320Z,67.90
2018-07-14T07:44:20.742Z,66.40
2018-07-14T07:46:49.163Z,67.70
2018-07-14T07:49:17.658Z,67.70
2018-07-14T07:51:46.189Z,68.10
2018-07-14T07:54:14.599Z,66.20
2018-07-14T07:56:43.017Z,67.00
2018-07-14T07:59:11.433Z,68.30
2018-07-14T08:01:39.827Z,65.80
2018-07-14T08:04:08.451Z,65.60
2018-07-14T08:06:36.831Z,64.80
2018-07-14T08:09:05.858Z,64.80
2018-07-14T08:11:34.197Z,64.70
2018-07-14T08:14:02.619Z,65.20
2018-07-14T08:16:31.136Z,63.40
2018-07-14T08:18:59.568Z,63.60
2018-07-14T08:21:28.224Z,63.20
2018-07-14T08:23:56.890Z,63.70
2018-07-14T08:26:27.724Z,63.90
2018-07-14T08:28:56.142Z,62.50
2018-07-14T08:31:24.543Z,62.50
2018-07-14T08:33:52.949Z,59.80
2018-07-14T08:36:21.379Z,60.60
2018-07-14T08:38:49.820Z,60.60
2018-07-14T08:41:18.252Z,59.00
2018-07-14T08:43:46.595Z,57.80
2018-07-14T08:46:15.048Z,57.60
2018-07-14T08:48:43.489Z,58.40
2018-07-14T08:51:11.945Z,57.10
2018-07-14T08:53:40.294Z,58.00
2018-07-14T08:56:08.744Z,58.60
2018-07-14T08:58:37.478Z,57.10
2018-07-14T09:01:05.860Z,58.10
2018-07-14T09:03:34.236Z,56.70
2018-07-14T09:06:02.940Z,56.70
2018-07-14T09:08:31.346Z,56.00
2018-07-14T09:10:59.765Z,57.10
2018-07-14T09:13:28.246Z,55.30
2018-07-14T09:15:56.661Z,55.20
2018-07-14T09:18:25.032Z,55.60
2018-07-14T09:20:53.374Z,54.80
2018-07-14T09:23:22.005Z,56.30
2018-07-14T09:25:50.372Z,56.60
2018-07-14T09:28:18.836Z,56.10
2018-07-14T09:30:47.203Z,56.60
2018-07-14T09:35:43.601Z,57.00
2018-07-14T09:38:11.955Z,55.20
2018-07-14T09:40:40.401Z,55.00
2018-07-14T09:43:08.796Z,55.00
2018-07-14T09:45:37.168Z,53.10
2018-07-14T09:48:06.096Z,54.80
2018-07-14T09:50:34.517Z,54.40
2018-07-14T09:53:02.929Z,54.00
2018-07-14T09:55:31.368Z,55.20
2018-07-14T09:57:59.756Z,51.80
2018-07-14T10:00:33.642Z,53.20
2018-07-14T10:03:03.226Z,51.80
2018-07-14T10:05:31.573Z,51.10
2018-07-14T10:08:00.306Z,50.00
2018-07-14T10:10:28.692Z,49.30
2018-07-14T10:12:57.030Z,49.00
2018-07-14T10:15:25.397Z,47.70
2018-07-14T10:17:54.119Z,48.20
2018-07-14T10:20:22.516Z,47.70
2018-07-14T10:22:50.963Z,49.50
2018-07-14T10:26:48.766Z,48.20
2018-07-14T10:29:17.185Z,47.20
2018-07-14T10:31:45.635Z,46.60
2018-07-14T10:34:14.725Z,46.30
2018-07-14T10:36:43.117Z,45.90
2018-07-14T10:39:11.732Z,48.60
2018-07-14T10:41:40.168Z,47.90
2018-07-14T10:44:08.613Z,47.40
2018-07-14T10:46:37.060Z,46.10
2018-07-14T10:49:05.499Z,44.50
2018-07-14T10:51:34.030Z,43.70
2018-07-14T10:54:02.767Z,46.10
2018-07-14T10:56:31.140Z,47.20
2018-07-14T10:58:59.898Z,47.80
2018-07-14T11:01:28.310Z,46.30
2018-07-14T11:03:57.279Z,45.50
2018-07-14T11:06:25.777Z,43.20
2018-07-14T11:08:54.513Z,41.80
2018-07-14T11:11:23.159Z,43.80
2018-07-14T11:13:51.633Z,44.10
2018-07-14T11:16:20.071Z,42.90
2018-07-14T11:18:48.980Z,42.80
2018-07-14T11:21:17.344Z,43.30
2018-07-14T11:23:45.844Z,44.00
2018-07-14T11:26:14.206Z,44.80
2018-07-14T11:28:42.613Z,45.50
2018-07-14T11:31:10.980Z,42.40
2018-07-14T11:33:39.299Z,42.00
2018-07-14T11:36:07.766Z,40.60
2018-07-14T11:38:36.426Z,41.20
2018-07-14T11:41:04.888Z,40.90
2018-07-14T11:43:33.233Z,41.40
2018-07-14T11:46:02.027Z,40.70
2018-07-14T11:48:30.503Z,40.10
2018-07-14T11:53:27.078Z,38.50
2018-07-14T11:55:55.491Z,40.10
2018-07-14T11:58:23.942Z,41.00
2018-07-14T12:00:52.495Z,42.80
2018-07-14T12:03:20.887Z,40.70
2018-07-14T12:05:49.304Z,40.00
2018-07-14T12:08:17.760Z,39.60
2018-07-14T12:13:14.251Z,38.30
2018-07-14T12:15:42.721Z,39.00
2018-07-14T12:18:11.113Z,39.80
2018-07-14T12:20:39.464Z,37.70
2018-07-14T12:23:08.249Z,38.10
2018-07-14T12:25:36.717Z,38.30
2018-07-14T12:28:05.110Z,37.10
2018-07-14T12:30:33.684Z,38.30
2018-07-14T12:33:02.111Z,39.20
2018-07-14T12:35:30.869Z,38.60
2018-07-14T12:37:59.276Z,37.30
2018-07-14T12:40:28.003Z,38.00
2018-07-14T12:42:57.078Z,39.00
2018-07-14T12:47:53.625Z,38.70
2018-07-14T12:50:22.046Z,38.40
2018-07-14T12:52:50.745Z,36.70
2018-07-14T12:55:19.220Z,36.50
2018-07-14T12:57:47.619Z,37.20
2018-07-14T13:00:16.095Z,36.90
2018-07-14T13:02:44.482Z,37.70
2018-07-14T13:05:12.889Z,37.10
2018-07-14T13:07:41.389Z,35.60
2018-07-14T13:10:10.086Z,37.20
2018-07-14T13:12:38.558Z,37.70
2018-07-14T13:15:07.114Z,36.50
2018-07-14T13:17:35.685Z,36.20
2018-07-14T13:20:04.303Z,38.20
2018-07-14T13:22:32.706Z,36.60
2018-07-14T13:25:01.102Z,35.90
2018-07-14T13:27:29.534Z,36.90
2018-07-14T13:29:57.969Z,35.30
2018-07-14T13:32:26.633Z,35.30
2018-07-14T13:34:55.069Z,36.20
2018-07-14T13:37:23.479Z,37.10
2018-07-14T13:39:52.056Z,37.20
2018-07-14T13:42:20.455Z,36.60
2018-07-14T13:44:49.144Z,36.80
2018-07-14T13:47:17.601Z,37.40
2018-07-14T13:49:46.110Z,35.60
2018-07-14T13:54:42.844Z,36.30
2018-07-14T13:59:39.336Z,36.30
2018-07-14T14:02:07.697Z,35.70
2018-07-14T14:07:04.144Z,36.50
2018-07-14T14:09:32.614Z,38.20
2018-07-14T14:12:01.064Z,38.40
2018-07-14T14:14:29.464Z,36.70
2018-07-14T14:16:57.810Z,36.80
2018-07-14T14:19:26.176Z,38.00
2018-07-14T14:21:54.535Z,36.50
2018-07-14T14:24:22.957Z,37.00
2018-07-14T14:26:51.380Z,38.40
2018-07-14T14:29:19.815Z,37.30
2018-07-14T14:31:48.160Z,38.60
2018-07-14T14:34:16.796Z,38.10
2018-07-14T14:36:45.178Z,37.90
2018-07-14T14:39:13.653Z,37.50
2018-07-14T14:41:42.074Z,38.40
2018-07-14T14:44:10.510Z,37.00
2018-07-14T14:46:38.961Z,37.20
2018-07-14T14:49:07.304Z,37.60
2018-07-14T14:51:35.685Z,36.20
2018-07-14T14:54:04.090Z,36.80
2018-07-14T14:56:32.509Z,38.80
2018-07-14T14:59:00.935Z,37.50
2018-07-14T15:01:29.312Z,37.20
2018-07-14T15:03:57.685Z,37.90
2018-07-14T15:06:26.719Z,37.30
2018-07-14T15:08:55.125Z,36.70
2018-07-14T15:11:23.523Z,36.60
2018-07-14T15:13:51.994Z,36.70
2018-07-14T15:16:20.403Z,37.20
2018-07-14T15:18:48.773Z,37.40
2018-07-14T15:21:17.245Z,38.50
2018-07-14T15:23:45.641Z,37.00
2018-07-14T15:28:42.100Z,36.30
2018-07-14T15:31:10.482Z,37.10
2018-07-14T15:33:39.170Z,37.70
2018-07-14T15:36:07.584Z,36.80
2018-07-14T15:38:36.001Z,36.80
2018-07-14T15:46:00.545Z,37.20
2018-07-14T15:48:28.918Z,37.10
2018-07-14T15:50:57.234Z,35.60
2018-07-14T15:53:25.612Z,35.40
2018-07-14T15:55:53.973Z,36.00
2018-07-14T15:58:22.407Z,35.80
2018-07-14T16:00:50.841Z,36.60
2018-07-14T16:03:19.221Z,36.50
2018-07-14T16:05:47.632Z,36.70
2018-07-14T16:08:16.301Z,37.10
2018-07-14T16:10:44.698Z,37.00
2018-07-14T16:13:16.212Z,36.80
2018-07-14T16:15:44.595Z,35.80
2018-07-14T16:18:13.225Z,37.00
2018-07-14T16:20:41.764Z,37.00
2018-07-14T16:23:10.177Z,37.20
2018-07-14T16:25:38.597Z,37.00
2018-07-14T16:28:06.987Z,37.50
2018-07-14T16:30:35.317Z,37.30
2018-07-14T16:33:03.681Z,37.20
2018-07-14T16:35:32.153Z,37.60
2018-07-14T16:38:00.480Z,37.90
2018-07-14T16:40:29.102Z,37.90
2018-07-14T16:42:57.531Z,37.60
2018-07-14T16:46:55.371Z,37.80
2018-07-14T16:49:23.796Z,37.70
2018-07-14T16:54:20.425Z,38.00
2018-07-14T16:56:48.864Z,39.00
2018-07-14T16:59:17.228Z,38.30
2018-07-14T17:01:45.637Z,38.10
2018-07-14T17:04:14.041Z,38.60
2018-07-14T17:06:42.416Z,39.00
2018-07-14T17:09:11.148Z,38.60
2018-07-14T17:11:39.528Z,38.60
2018-07-14T17:14:08.152Z,38.90
2018-07-14T17:16:36.344Z,40.00
2018-07-14T17:19:04.745Z,41.00
2018-07-14T17:21:33.115Z,39.80
2018-07-14T17:24:01.461Z,39.80
2018-07-14T17:26:29.812Z,40.10
2018-07-14T17:28:58.572Z,40.30
2018-07-14T17:31:27.024Z,40.70
2018-07-14T17:33:55.444Z,40.90
2018-07-14T17:36:23.765Z,41.30
2018-07-14T17:38:52.125Z,40.90
2018-07-14T17:41:20.758Z,41.20
2018-07-14T17:43:49.629Z,41.40
2018-07-14T17:46:18.014Z,41.50
2018-07-14T17:48:46.418Z,41.80
2018-07-14T17:51:15.193Z,41.40
2018-07-14T17:53:43.609Z,41.60
2018-07-14T17:56:11.995Z,41.80
2018-07-14T17:58:40.432Z,42.10
2018-07-14T18:01:08.824Z,42.00
2018-07-14T18:03:37.231Z,42.00
2018-07-14T18:06:05.570Z,42.10
2018-07-14T18:08:33.962Z,41.50
2018-07-14T18:11:02.318Z,41.40
2018-07-14T18:13:30.695Z,41.60
2018-07-14T18:15:59.071Z,41.40
2018-07-14T18:18:27.523Z,41.60
2018-07-14T18:20:55.955Z,42.60
2018-07-14T18:23:24.637Z,43.20
2018-07-14T18:25:53.002Z,43.50
2018-07-14T18:28:21.753Z,43.20
2018-07-14T18:30:50.145Z,43.20
2018-07-14T18:33:18.489Z,43.00
2018-07-14T18:35:46.946Z,43.40
2018-07-14T18:38:15.533Z,43.50
2018-07-14T18:40:43.873Z,43.60
2018-07-14T18:43:12.325Z,43.50
2018-07-14T18:45:40.672Z,45.90
2018-07-14T18:48:09.038Z,47.80
2018-07-14T18:53:05.833Z,48.80
2018-07-14T18:55:34.193Z,49.00
2018-07-14T18:58:02.560Z,48.80
2018-07-14T19:00:30.949Z,49.20
2018-07-14T19:02:59.338Z,49.00
2018-07-14T19:05:27.702Z,49.00
2018-07-14T19:07:56.024Z,49.20
2018-07-14T19:10:24.444Z,49.20
2018-07-14T19:12:52.825Z,49.20
2018-07-14T19:15:21.479Z,49.90
2018-07-14T19:17:49.933Z,50.60
2018-07-14T19:20:18.702Z,51.50
2018-07-14T19:22:47.380Z,51.90
2018-07-14T19:25:15.688Z,52.60
2018-07-14T19:27:44.074Z,53.50
2018-07-14T19:30:12.470Z,54.30
2018-07-14T19:32:40.818Z,55.10
2018-07-14T19:35:09.167Z,55.80
2018-07-14T19:37:37.549Z,55.80
2018-07-14T19:40:05.916Z,56.30
2018-07-14T19:42:34.334Z,56.50
2018-07-14T19:45:02.776Z,56.90
2018-07-14T19:47:31.466Z,57.30
2018-07-14T19:49:59.812Z,57.60
2018-07-14T19:52:28.199Z,57.80
2018-07-14T19:54:56.537Z,58.60
2018-07-14T19:57:24.908Z,58.70
2018-07-14T19:59:53.329Z,58.90
2018-07-14T20:02:21.748Z,59.30
2018-07-14T20:04:50.486Z,59.90
2018-07-14T20:07:18.913Z,60.60
2018-07-14T20:09:48.127Z,60.70
2018-07-14T20:12:16.463Z,61.50
2018-07-14T20:14:44.860Z,62.80
2018-07-14T20:17:13.248Z,62.30
2018-07-14T20:19:41.868Z,62.40
2018-07-14T20:22:10.252Z,62.60
2018-07-14T20:24:38.872Z,62.80
2018-07-14T20:27:07.342Z,63.20
2018-07-14T20:29:35.683Z,63.40
2018-07-14T20:32:04.116Z,63.60
2018-07-14T20:34:32.522Z,63.60
2018-07-14T20:37:01.163Z,63.90
2018-07-14T20:39:29.514Z,64.80
2018-07-14T20:41:58.210Z,65.00
2018-07-14T20:44:26.569Z,65.50
2018-07-14T20:46:54.903Z,65.50
2018-07-14T20:51:51.429Z,65.70
2018-07-14T20:54:19.832Z,65.80
2018-07-14T20:56:48.222Z,66.10
2018-07-14T20:59:16.622Z,66.50
2018-07-14T21:01:45.344Z,67.10
2018-07-14T21:04:13.827Z,67.30
2018-07-14T21:06:42.200Z,67.70
2018-07-14T21:09:10.615Z,68.00
2018-07-14T21:11:39.002Z,68.10
2018-07-14T21:14:07.424Z,68.60
2018-07-14T21:16:35.826Z,68.80
2018-07-14T21:19:04.611Z,69.10
2018-07-14T21:21:32.953Z,69.10
2018-07-14T21:24:01.356Z,69.60
2018-07-14T21:26:29.703Z,70.10
2018-07-14T21:28:58.371Z,70.20
2018-07-14T21:31:26.792Z,70.20
2018-07-14T21:33:55.162Z,70.80
2018-07-14T21:36:23.534Z,70.50
2018-07-14T21:38:51.933Z,70.60
2018-07-14T21:41:20.289Z,71.00
2018-07-14T21:43:48.627Z,71.20
2018-07-14T21:48:45.708Z,72.10
2018-07-14T21:51:14.142Z,71.90
2018-07-14T21:53:42.838Z,71.90
2018-07-14T21:56:11.476Z,72.20
2018-07-14T21:58:39.852Z,72.30
2018-07-14T22:01:13.660Z,72.10
2018-07-14T22:03:42.378Z,72.80
2018-07-14T22:06:10.715Z,72.80
2018-07-14T22:08:39.166Z,72.70
2018-07-14T22:11:07.560Z,72.10
2018-07-14T22:13:35.910Z,71.70
2018-07-14T22:16:04.293Z,72.50
2018-07-14T22:18:32.624Z,73.00
2018-07-14T22:21:00.974Z,72.90
2018-07-14T22:23:29.962Z,72.10
2018-07-14T22:25:58.670Z,71.60
2018-07-14T22:28:27.077Z,71.90
2018-07-14T22:30:55.783Z,72.90
2018-07-14T22:33:24.177Z,72.40
2018-07-14T22:38:21.095Z,72.90
2018-07-14T22:40:49.824Z,73.20
2018-07-14T22:43:18.232Z,73.50
2018-07-14T22:45:46.842Z,72.90
2018-07-14T22:48:15.251Z,72.80
2018-07-14T22:50:43.630Z,73.00
2018-07-14T22:53:12.143Z,73.20
2018-07-14T22:55:40.574Z,73.30
2018-07-14T22:58:09.290Z,72.80
2018-07-14T23:00:38.061Z,72.20
2018-07-14T23:03:06.402Z,72.00
2018-07-14T23:05:34.724Z,71.80
2018-07-14T23:08:03.374Z,71.60
2018-07-14T23:10:31.752Z,71.90
2018-07-14T23:13:00.207Z,72.20
2018-07-14T23:15:28.602Z,72.10
2018-07-14T23:17:57.063Z,72.20
2018-07-14T23:20:25.416Z,72.40
2018-07-14T23:22:53.829Z,72.30
2018-07-14T23:25:22.510Z,72.60
2018-07-14T23:27:51.072Z,72.20
2018-07-14T23:30:19.471Z,72.80
2018-07-14T23:32:47.807Z,72.90
2018-07-14T23:35:17.050Z,72.70
2018-07-14T23:37:45.549Z,73.00
2018-07-14T23:40:14.393Z,72.80
2018-07-14T23:42:42.775Z,73.40
2018-07-14T23:45:11.229Z,73.60
2018-07-14T23:47:39.885Z,73.20
2018-07-14T23:50:08.301Z,73.20
2018-07-14T23:52:36.708Z,73.10
2018-07-14T23:55:05.398Z,73.40
2018-07-14T23:57:33.728Z,73.00
